Terminal Aerodrome Forecast
Issued by NWS

Home | Current Version | Previous Version | Text Only | Print | Product List | Glossary On
Versions: 1 2 3 4 5 6 7 8 9 10 11 12 13 14 15 16 17 18 19 20 21 22 23 24 25 26 27 28 29 30 31 32 33 34 35 36 37 38 39 40 41 42 43 44 45 46 47 48 49 50
000
FTUS45 KBOU 310139 AAA
TAFAPA
TAF AMD
KAPA 310139Z 3102/3124 10007KT P6SM VCTS BKN020CB OVC035
      TEMPO 3102/3104 1 1/2SM -SHRA BKN015
     FM310400 20006KT P6SM SCT030 BKN050
     FM310900 VRB04KT P6SM VCFG SCT005
      TEMPO 3110/3114 1/2SM FG BKN005
     FM311500 32004KT P6SM BKN015 BKN080
     FM312100 09007KT P6SM VCTS BKN060CB BKN120=

USA.gov is the U.S. government's official web portal to all federal, state and local government web resources and services.